Time;durP1;ratioP1;P1;durP2;ratioP2;P2;SDS_P1;SDS_P2;PMS_P1;PMS_P2;Temp;Humidity;BMP_temperature;BMP_pressure;BME280_temperature;BME280_humidity;BME280_pressure;Samples;Min_cycle;Max_cycle;Signal;HPM_P1;HPM_P2
2021/04/10 00:00:33;;;;;;;11.95;3.58;;;8.40;69.50;;;;;;5018367;28;20041;-74
2021/04/10 00:03:00;;;;;;;9.90;3.40;;;8.30;69.50;;;;;;5030639;28;20053;-73
2021/04/10 00:05:26;;;;;;;10.35;3.63;;;8.30;69.50;;;;;;5017783;28;20417;-73
2021/04/10 00:07:52;;;;;;;9.30;3.10;;;8.30;69.50;;;;;;5027652;28;20066;-73
2021/04/10 00:10:17;;;;;;;10.43;3.63;;;8.40;69.50;;;;;;5008992;28;20129;-74
2021/04/10 00:12:43;;;;;;;9.77;3.97;;;8.30;69.50;;;;;;5015868;28;20409;-73
2021/04/10 00:15:11;;;;;;;12.85;4.50;;;8.30;69.40;;;;;;5011013;28;20088;-74
2021/04/10 00:17:37;;;;;;;11.30;3.85;;;8.30;69.50;;;;;;5031161;28;20507;-73
2021/04/10 00:20:07;;;;;;;9.73;3.33;;;8.30;69.60;;;;;;5024290;28;20053;-73
2021/04/10 00:22:36;;;;;;;8.15;3.53;;;8.20;69.50;;;;;;5012329;28;20042;-73
2021/04/10 00:25:03;;;;;;;8.57;3.53;;;8.20;69.50;;;;;;5013097;28;20128;-73
2021/04/10 00:27:29;;;;;;;7.55;2.90;;;8.20;69.60;;;;;;5026156;28;20048;-73
2021/04/10 00:29:55;;;;;;;10.40;3.17;;;8.20;69.60;;;;;;5033740;28;20057;-73
2021/04/10 00:32:20;;;;;;;8.88;2.83;;;8.20;69.60;;;;;;5032839;28;20072;-74
2021/04/10 00:34:46;;;;;;;7.18;3.33;;;8.20;69.50;;;;;;5032557;28;20041;-73
2021/04/10 00:37:14;;;;;;;10.50;3.00;;;8.20;69.60;;;;;;5032638;28;20045;-73
2021/04/10 00:39:40;;;;;;;10.02;3.00;;;8.10;69.50;;;;;;5015425;28;20041;-73
2021/04/10 00:42:06;;;;;;;10.70;3.08;;;8.10;69.50;;;;;;5032326;28;20510;-72
2021/04/10 00:44:32;;;;;;;10.82;2.55;;;8.10;69.60;;;;;;5031280;28;20041;-73
2021/04/10 00:46:57;;;;;;;8.52;2.47;;;8.10;70.20;;;;;;5013872;28;20048;-73
2021/04/10 00:49:25;;;;;;;7.18;2.63;;;8.10;69.50;;;;;;5011896;28;20121;-73
2021/04/10 00:51:50;;;;;;;9.45;2.70;;;8.10;69.40;;;;;;5013732;28;20129;-73
2021/04/10 00:54:16;;;;;;;8.45;3.15;;;8.10;69.50;;;;;;5013747;28;20379;-73
2021/04/10 00:56:43;;;;;;;8.48;2.60;;;8.10;69.50;;;;;;4995266;28;20546;-73
2021/04/10 00:59:09;;;;;;;8.32;3.22;;;8.10;69.50;;;;;;5013631;28;20126;-73
2021/04/10 01:01:35;;;;;;;7.90;3.05;;;8.10;69.50;;;;;;4995023;28;20379;-73
2021/04/10 01:04:01;;;;;;;6.38;2.47;;;8.10;69.50;;;;;;5011871;28;20390;-74
2021/04/10 01:06:27;;;;;;;9.02;2.53;;;8.10;69.50;;;;;;5021085;28;20112;-74
2021/04/10 01:08:53;;;;;;;12.55;2.70;;;8.00;69.50;;;;;;5031076;28;20498;-73
2021/04/10 01:11:52;;;;;;;7.60;2.60;;;8.00;69.50;;;;;;5031924;28;20070;-73
2021/04/10 01:14:36;;;;;;;9.63;2.60;;;8.00;69.70;;;;;;5031249;28;20049;-73
2021/04/10 01:17:12;;;;;;;9.18;2.38;;;8.00;69.60;;;;;;5011998;28;20046;-73
2021/04/10 01:19:44;;;;;;;8.77;2.60;;;8.00;69.60;;;;;;4999223;28;20101;-72
2021/04/10 01:22:29;;;;;;;7.47;2.65;;;8.00;69.60;;;;;;5031911;28;20467;-74
2021/04/10 01:25:00;;;;;;;8.70;2.83;;;8.00;70.00;;;;;;5033009;28;20069;-74
2021/04/10 01:27:46;;;;;;;9.57;3.17;;;8.00;69.80;;;;;;5030887;28;20045;-74
2021/04/10 01:30:16;;;;;;;8.15;2.67;;;8.00;69.90;;;;;;5035382;28;20187;-73
2021/04/10 01:32:50;;;;;;;10.93;2.55;;;7.90;69.80;;;;;;5025837;28;20050;-74
2021/04/10 01:35:17;;;;;;;7.40;2.60;;;7.90;69.90;;;;;;5002098;28;20038;-73
2021/04/10 01:37:53;;;;;;;9.07;2.92;;;7.90;69.90;;;;;;4984981;28;20057;-74
2021/04/10 01:40:20;;;;;;;9.65;2.85;;;7.90;70.00;;;;;;5019409;28;20057;-74
2021/04/10 01:42:46;;;;;;;9.07;2.83;;;7.90;70.00;;;;;;5017520;28;20038;-73
2021/04/10 01:45:12;;;;;;;6.88;2.50;;;7.90;70.00;;;;;;5017952;28;20050;-73
2021/04/10 01:47:38;;;;;;;10.48;2.65;;;7.90;70.00;;;;;;5017587;28;20046;-73
2021/04/10 01:50:04;;;;;;;10.48;2.55;;;7.90;70.00;;;;;;5017824;28;20068;-72
2021/04/10 01:52:30;;;;;;;7.25;2.80;;;7.90;70.00;;;;;;5017019;28;20064;-73
2021/04/10 01:54:56;;;;;;;8.40;2.55;;;7.90;70.10;;;;;;5017599;28;20054;-73
2021/04/10 01:57:21;;;;;;;6.28;2.45;;;7.90;70.10;;;;;;5001169;28;20064;-73
2021/04/10 01:59:47;;;;;;;6.32;2.60;;;7.80;70.10;;;;;;5000793;28;20049;-73
2021/04/10 02:02:14;;;;;;;7.68;3.05;;;7.90;70.20;;;;;;5017503;28;20069;-73
2021/04/10 02:04:43;;;;;;;7.95;2.35;;;7.80;70.20;;;;;;5016943;28;20482;-73
2021/04/10 02:07:09;;;;;;;7.40;2.55;;;7.80;70.20;;;;;;5018889;28;20175;-73
2021/04/10 02:09:35;;;;;;;7.97;2.42;;;7.80;70.20;;;;;;4984420;28;20056;-74
2021/04/10 02:12:01;;;;;;;7.95;2.75;;;7.80;70.20;;;;;;5017561;28;20050;-73
2021/04/10 02:14:28;;;;;;;8.52;2.80;;;7.80;70.20;;;;;;5001040;28;20096;-72
2021/04/10 02:16:53;;;;;;;9.68;2.55;;;7.90;70.30;;;;;;5019079;28;20050;-73
2021/04/10 02:19:19;;;;;;;9.02;3.33;;;7.80;70.30;;;;;;5017949;28;20084;-73
2021/04/10 02:21:45;;;;;;;9.85;2.67;;;7.80;70.20;;;;;;5017292;28;20499;-72
2021/04/10 02:24:11;;;;;;;9.50;2.67;;;7.80;70.20;;;;;;5018044;28;20053;-72
2021/04/10 02:26:37;;;;;;;8.18;2.35;;;7.80;70.20;;;;;;5015482;28;20042;-73
2021/04/10 02:29:04;;;;;;;11.35;4.00;;;7.80;70.20;;;;;;5016484;28;20060;-72
2021/04/10 02:31:40;;;;;;;9.07;2.60;;;7.70;70.20;;;;;;5018205;28;20037;-74
2021/04/10 02:34:19;;;;;;;8.82;2.45;;;7.70;70.30;;;;;;4987081;28;20041;-73
2021/04/10 02:36:46;;;;;;;8.90;2.70;;;7.70;70.30;;;;;;5018234;28;20050;-74
2021/04/10 02:39:12;;;;;;;10.35;2.85;;;7.70;70.20;;;;;;5018739;28;20065;-73
2021/04/10 02:41:38;;;;;;;8.15;2.50;;;7.70;70.20;;;;;;5018198;28;20060;-73
2021/04/10 02:44:06;;;;;;;6.30;1.83;;;7.70;70.30;;;;;;4985704;28;20463;-73
2021/04/10 02:46:37;;;;;;;6.45;2.40;;;7.70;70.30;;;;;;5017825;28;20053;-73
2021/04/10 02:49:06;;;;;;;7.65;2.80;;;7.70;70.40;;;;;;5017839;28;20042;-73
2021/04/10 02:51:37;;;;;;;7.22;2.45;;;7.70;70.40;;;;;;5001664;28;20188;-73
2021/04/10 02:54:04;;;;;;;5.43;1.90;;;7.60;70.40;;;;;;5014580;28;20147;-73
2021/04/10 02:56:29;;;;;;;7.75;2.45;;;7.70;70.50;;;;;;5025187;28;20072;-73
2021/04/10 02:58:55;;;;;;;7.20;2.15;;;7.70;70.50;;;;;;5037718;28;20183;-73
2021/04/10 03:01:21;;;;;;;11.20;2.80;;;7.70;70.40;;;;;;5012192;28;20050;-72
2021/04/10 03:03:47;;;;;;;6.70;2.22;;;7.70;70.60;;;;;;5000749;28;20123;-73
2021/04/10 03:06:16;;;;;;;11.38;3.15;;;7.60;70.50;;;;;;5001510;28;20136;-73
2021/04/10 03:08:42;;;;;;;9.32;3.30;;;7.60;70.40;;;;;;5001279;28;20053;-74
2021/04/10 03:11:08;;;;;;;6.15;2.50;;;7.60;70.50;;;;;;5036695;28;20052;-74
2021/04/10 03:13:33;;;;;;;7.97;2.80;;;7.60;70.60;;;;;;5020786;28;20398;-73
2021/04/10 03:15:59;;;;;;;7.22;2.88;;;7.60;70.60;;;;;;5036792;28;20057;-74
2021/04/10 03:18:25;;;;;;;6.97;2.85;;;7.60;70.60;;;;;;5020446;28;20053;-73
2021/04/10 03:20:52;;;;;;;8.32;2.55;;;7.70;70.70;;;;;;5020635;28;20052;-73
2021/04/10 03:23:17;;;;;;;7.22;2.90;;;7.60;70.70;;;;;;5038468;28;20045;-73
2021/04/10 03:25:43;;;;;;;7.07;2.63;;;7.60;70.80;;;;;;5019994;28;20041;-74
2021/04/10 03:28:09;;;;;;;8.65;2.45;;;7.60;70.80;;;;;;5038373;28;20041;-73
2021/04/10 03:30:36;;;;;;;11.82;2.85;;;7.60;70.90;;;;;;5023242;28;20054;-73
2021/04/10 03:33:02;;;;;;;10.00;2.85;;;7.60;70.90;;;;;;5000202;28;20141;-73
2021/04/10 03:35:28;;;;;;;7.20;2.63;;;7.60;70.80;;;;;;5016998;28;20144;-73
2021/04/10 03:37:54;;;;;;;10.93;3.40;;;7.60;70.90;;;;;;5017703;28;20465;-73
2021/04/10 03:40:20;;;;;;;8.32;2.72;;;7.60;70.90;;;;;;5016959;28;20399;-72
2021/04/10 03:42:46;;;;;;;6.97;2.55;;;7.60;71.10;;;;;;5015805;28;20049;-73
2021/04/10 03:45:13;;;;;;;8.15;2.95;;;7.60;70.90;;;;;;5018070;28;20117;-73
2021/04/10 03:47:39;;;;;;;11.13;3.67;;;7.60;71.10;;;;;;5016703;28;20176;-73
2021/04/10 03:50:06;;;;;;;7.22;2.78;;;7.50;71.00;;;;;;5016417;28;20482;-72
2021/04/10 03:52:32;;;;;;;10.32;3.35;;;7.50;71.00;;;;;;5020432;28;20069;-73
2021/04/10 03:54:58;;;;;;;12.07;3.10;;;7.60;71.10;;;;;;5020039;28;20480;-73
2021/04/10 03:57:24;;;;;;;10.88;3.13;;;7.50;71.20;;;;;;5020103;28;20077;-73
2021/04/10 03:59:50;;;;;;;7.90;3.13;;;7.50;71.20;;;;;;5019764;28;20042;-73
2021/04/10 04:02:15;;;;;;;8.10;2.97;;;7.50;71.30;;;;;;5004443;28;20065;-73
2021/04/10 04:04:41;;;;;;;10.20;2.90;;;7.50;71.20;;;;;;5021922;28;20141;-74
2021/04/10 04:07:08;;;;;;;9.40;3.40;;;7.50;71.20;;;;;;5021678;28;20065;-74
2021/04/10 04:09:35;;;;;;;7.00;2.88;;;7.50;71.30;;;;;;5021904;28;20105;-73
2021/04/10 04:12:01;;;;;;;9.13;2.75;;;7.50;71.30;;;;;;5003915;28;20103;-74
2021/04/10 04:14:26;;;;;;;11.13;3.78;;;7.50;71.40;;;;;;5020435;28;20053;-73
2021/04/10 04:16:52;;;;;;;10.00;3.80;;;7.50;71.30;;;;;;5021243;28;20104;-74
2021/04/10 04:19:18;;;;;;;7.40;2.80;;;7.50;71.30;;;;;;5021302;28;20495;-73
2021/04/10 04:21:44;;;;;;;9.75;3.10;;;7.50;71.10;;;;;;5021500;28;20038;-73
2021/04/10 04:24:10;;;;;;;6.03;2.78;;;7.50;71.40;;;;;;5022216;28;20068;-73
2021/04/10 04:26:35;;;;;;;8.02;3.03;;;7.40;71.30;;;;;;5021734;28;20057;-73
2021/04/10 04:29:01;;;;;;;8.07;2.92;;;7.40;71.20;;;;;;5021487;28;20049;-73
2021/04/10 04:31:27;;;;;;;10.52;3.38;;;7.50;71.30;;;;;;5021805;28;20077;-72
2021/04/10 04:33:53;;;;;;;10.93;2.65;;;7.40;71.20;;;;;;5005034;28;20053;-73
2021/04/10 04:36:19;;;;;;;8.80;3.25;;;7.40;71.30;;;;;;5021821;28;20101;-73
2021/04/10 04:38:44;;;;;;;10.60;2.85;;;7.40;71.40;;;;;;5021500;28;20442;-73
2021/04/10 04:41:10;;;;;;;7.68;2.72;;;7.40;71.40;;;;;;5022768;28;20050;-74
2021/04/10 04:43:36;;;;;;;7.28;2.35;;;7.40;71.30;;;;;;5022524;28;20410;-73
2021/04/10 04:46:02;;;;;;;9.80;3.20;;;7.40;71.30;;;;;;5022161;28;20050;-73
2021/04/10 04:48:27;;;;;;;7.55;2.70;;;7.40;71.20;;;;;;5021368;28;20108;-73
2021/04/10 04:50:53;;;;;;;8.20;2.88;;;7.40;71.20;;;;;;5022116;28;20046;-73
2021/04/10 04:53:19;;;;;;;10.20;3.28;;;7.40;71.20;;;;;;5022739;28;20155;-73
2021/04/10 04:55:45;;;;;;;10.32;2.90;;;7.40;71.30;;;;;;5021487;28;20042;-72
2021/04/10 04:58:11;;;;;;;7.85;2.88;;;7.40;71.30;;;;;;5022286;28;20050;-73
2021/04/10 05:00:36;;;;;;;10.27;3.05;;;7.40;71.30;;;;;;5022587;28;20082;-73
2021/04/10 05:03:02;;;;;;;10.70;3.15;;;7.40;71.30;;;;;;5019892;28;20108;-73
2021/04/10 05:05:28;;;;;;;9.60;2.95;;;7.40;71.30;;;;;;5022252;28;20056;-74
2021/04/10 05:07:54;;;;;;;9.65;3.15;;;7.40;71.30;;;;;;5020857;28;20046;-72
2021/04/10 05:10:20;;;;;;;8.15;2.80;;;7.40;71.30;;;;;;5021394;28;20112;-74
2021/04/10 05:12:46;;;;;;;7.55;3.00;;;7.30;71.30;;;;;;5020288;28;20116;-72
2021/04/10 05:15:12;;;;;;;7.93;3.28;;;7.30;71.30;;;;;;5021163;28;20233;-73
2021/04/10 05:17:38;;;;;;;8.68;2.97;;;7.30;71.20;;;;;;5021808;28;20068;-73
2021/04/10 05:20:04;;;;;;;5.70;2.58;;;7.30;71.30;;;;;;5020264;28;20081;-74
2021/04/10 05:22:30;;;;;;;10.48;3.72;;;7.30;71.30;;;;;;5003791;28;20061;-73
2021/04/10 05:24:55;;;;;;;13.57;2.95;;;7.30;71.20;;;;;;5020751;28;20414;-74
2021/04/10 05:27:21;;;;;;;8.55;3.00;;;7.30;71.20;;;;;;5021505;28;20046;-73
2021/04/10 05:29:47;;;;;;;7.65;2.60;;;7.30;71.20;;;;;;5004124;28;20045;-73
2021/04/10 05:32:13;;;;;;;9.48;2.80;;;7.30;71.10;;;;;;5003148;28;20073;-73
2021/04/10 05:34:40;;;;;;;9.20;2.90;;;7.40;71.10;;;;;;5020918;28;20045;-73
2021/04/10 05:37:06;;;;;;;8.98;2.67;;;7.30;71.10;;;;;;5020642;28;20086;-73
2021/04/10 05:39:31;;;;;;;8.88;2.90;;;7.30;71.20;;;;;;5019398;28;20046;-73
2021/04/10 05:41:57;;;;;;;7.07;2.70;;;7.30;71.20;;;;;;5019110;28;20056;-73
2021/04/10 05:44:23;;;;;;;10.10;2.53;;;7.30;71.20;;;;;;5019734;28;20068;-73
2021/04/10 05:46:49;;;;;;;9.60;2.63;;;7.30;71.10;;;;;;5020720;28;20050;-72
2021/04/10 05:49:14;;;;;;;8.30;2.67;;;7.20;71.10;;;;;;5019080;28;20115;-73
2021/04/10 05:51:40;;;;;;;7.72;2.75;;;7.30;71.00;;;;;;5019218;28;20057;-73
2021/04/10 05:54:08;;;;;;;9.27;2.75;;;7.30;71.00;;;;;;5002719;28;20089;-74
2021/04/10 05:56:33;;;;;;;7.90;2.78;;;7.30;71.00;;;;;;5019273;28;20350;-74
2021/04/10 05:58:59;;;;;;;7.82;2.40;;;7.30;71.10;;;;;;5018590;28;20052;-74
2021/04/10 06:01:28;;;;;;;6.57;2.35;;;7.30;71.00;;;;;;5020429;28;20050;-73
2021/04/10 06:03:57;;;;;;;8.30;2.78;;;7.30;71.00;;;;;;5030921;28;20052;-72
2021/04/10 06:06:22;;;;;;;9.68;2.85;;;7.30;71.00;;;;;;5027168;28;20042;-73
2021/04/10 06:08:49;;;;;;;8.48;2.80;;;7.30;71.00;;;;;;5028921;28;20037;-73
2021/04/10 06:11:15;;;;;;;7.43;2.80;;;7.30;71.10;;;;;;5022845;28;20172;-74
2021/04/10 06:13:41;;;;;;;8.70;2.40;;;7.30;71.20;;;;;;5028437;28;20117;-72
2021/04/10 06:16:10;;;;;;;6.80;2.78;;;7.30;71.20;;;;;;5030146;28;20481;-73
2021/04/10 06:18:36;;;;;;;11.70;2.65;;;7.40;71.20;;;;;;5024485;28;20053;-73
2021/04/10 06:21:02;;;;;;;9.13;3.10;;;7.30;71.20;;;;;;5027937;28;20045;-72
2021/04/10 06:23:28;;;;;;;8.57;2.30;;;7.30;71.10;;;;;;5037684;28;20064;-72
2021/04/10 06:25:54;;;;;;;7.60;2.20;;;7.30;71.00;;;;;;5037689;28;20504;-71
2021/04/10 06:28:19;;;;;;;6.88;2.00;;;7.30;71.10;;;;;;5034262;28;20041;-72
2021/04/10 06:30:45;;;;;;;6.70;2.30;;;7.30;71.00;;;;;;5021342;28;20502;-72
2021/04/10 06:33:11;;;;;;;8.40;2.97;;;7.40;71.00;;;;;;5018655;28;20061;-73
2021/04/10 06:35:37;;;;;;;10.45;2.92;;;7.30;70.90;;;;;;5027262;28;20117;-73
2021/04/10 06:38:02;;;;;;;11.40;2.35;;;7.30;71.00;;;;;;5035770;28;20053;-74
2021/04/10 06:40:33;;;;;;;8.10;2.83;;;7.40;70.90;;;;;;5028862;28;20038;-74
2021/04/10 06:43:03;;;;;;;6.32;2.38;;;7.40;70.80;;;;;;5024345;28;20046;-73
2021/04/10 06:45:28;;;;;;;10.80;2.47;;;7.40;70.70;;;;;;5019942;28;20052;-72
2021/04/10 06:47:54;;;;;;;7.43;2.22;;;7.40;70.70;;;;;;5031634;28;20041;-72
2021/04/10 06:50:21;;;;;;;7.50;2.25;;;7.40;70.70;;;;;;5032429;28;20048;-73
2021/04/10 06:52:47;;;;;;;10.88;3.00;;;7.50;70.60;;;;;;5032693;28;20044;-73
2021/04/10 06:55:15;;;;;;;8.57;2.10;;;7.50;70.50;;;;;;5028064;28;20049;-73
2021/04/10 06:58:04;;;;;;;6.85;2.10;;;7.50;70.50;;;;;;5025183;28;20038;-73
2021/04/10 07:00:31;;;;;;;6.10;2.10;;;7.60;70.60;;;;;;5030279;28;20454;-73
2021/04/10 07:02:57;;;;;;;9.65;2.50;;;7.60;70.40;;;;;;5032377;28;20111;-73
2021/04/10 07:05:23;;;;;;;11.90;2.90;;;7.70;70.40;;;;;;5028967;28;20050;-72
2021/04/10 07:07:49;;;;;;;10.63;2.35;;;7.60;70.30;;;;;;5008418;28;20117;-71
2021/04/10 07:10:16;;;;;;;6.43;2.22;;;7.70;70.30;;;;;;5034905;28;20126;-71
2021/04/10 07:12:42;;;;;;;5.72;2.08;;;7.70;70.30;;;;;;5003012;28;20383;-70
2021/04/10 07:15:09;;;;;;;8.57;2.72;;;7.70;70.10;;;;;;5013735;28;20153;-70
2021/04/10 07:17:35;;;;;;;8.85;2.35;;;7.80;70.10;;;;;;5035450;28;20049;-73
2021/04/10 07:20:39;;;;;;;7.30;2.30;;;7.80;70.00;;;;;;5036022;28;20069;-72
2021/04/10 07:23:12;;;;;;;9.63;2.97;;;7.90;70.00;;;;;;5029442;28;20093;-74
2021/04/10 07:25:43;;;;;;;8.38;2.65;;;8.00;70.00;;;;;;5016051;28;20042;-73
2021/04/10 07:28:27;;;;;;;9.80;2.47;;;8.10;69.90;;;;;;5028443;28;20053;-74
2021/04/10 07:31:01;;;;;;;8.05;2.25;;;8.10;69.70;;;;;;5034130;28;20045;-72
2021/04/10 07:33:28;;;;;;;9.88;3.28;;;8.20;69.50;;;;;;5028471;28;20057;-71
2021/04/10 07:35:53;;;;;;;9.35;2.58;;;8.30;69.40;;;;;;5035853;28;20492;-71
2021/04/10 07:38:27;;;;;;;10.95;2.97;;;8.30;69.20;;;;;;5009810;28;20049;-70
2021/04/10 07:40:53;;;;;;;7.57;2.50;;;8.40;69.00;;;;;;5036641;28;20041;-71
2021/04/10 07:43:29;;;;;;;9.73;3.13;;;8.50;69.00;;;;;;5018906;28;20087;-71
2021/04/10 07:46:10;;;;;;;7.97;2.58;;;8.50;68.80;;;;;;5035687;28;20069;-71
2021/04/10 07:48:36;;;;;;;13.57;2.58;;;8.60;68.40;;;;;;5029533;28;20068;-70
2021/04/10 07:51:02;;;;;;;7.85;2.78;;;8.70;68.40;;;;;;5029076;28;20045;-72
2021/04/10 07:53:29;;;;;;;10.70;2.25;;;8.70;68.10;;;;;;5030210;28;20041;-71
2021/04/10 07:55:55;;;;;;;9.68;2.53;;;8.80;67.90;;;;;;5031210;28;20060;-71
2021/04/10 07:58:29;;;;;;;5.20;1.98;;;8.80;67.70;;;;;;5028997;28;20037;-72
2021/04/10 08:00:57;;;;;;;8.52;2.40;;;8.90;67.60;;;;;;5029788;28;20041;-71
2021/04/10 08:03:23;;;;;;;8.18;2.35;;;8.90;67.30;;;;;;5028229;28;20045;-71
2021/04/10 08:05:49;;;;;;;8.15;2.50;;;9.00;67.20;;;;;;5026348;28;20045;-71
2021/04/10 08:08:25;;;;;;;10.02;2.70;;;9.00;67.00;;;;;;5030679;28;20053;-72
2021/04/10 08:10:59;;;;;;;14.10;2.13;;;9.00;66.70;;;;;;5026999;28;20120;-72
2021/04/10 08:13:25;;;;;;;10.48;2.40;;;9.10;66.60;;;;;;5027851;28;20046;-71
2021/04/10 08:16:19;;;;;;;9.98;2.53;;;9.10;66.50;;;;;;5027175;28;20045;-72
2021/04/10 08:18:46;;;;;;;9.75;2.15;;;9.20;66.30;;;;;;5016760;28;20056;-73
2021/04/10 08:21:13;;;;;;;9.43;2.40;;;9.30;66.30;;;;;;5027895;28;20057;-74
2021/04/10 08:23:39;;;;;;;10.48;2.05;;;9.30;66.10;;;;;;5028123;28;20064;-71
2021/04/10 08:26:04;;;;;;;8.35;2.10;;;9.40;66.50;;;;;;5029489;28;20505;-71
2021/04/10 08:28:30;;;;;;;7.32;2.20;;;9.40;65.30;;;;;;5027178;28;20048;-72
2021/04/10 08:30:58;;;;;;;10.05;2.10;;;9.40;65.10;;;;;;5012008;28;20041;-72
2021/04/10 08:33:28;;;;;;;12.65;2.40;;;9.40;65.00;;;;;;5028641;28;20115;-74
2021/04/10 08:35:55;;;;;;;8.68;2.35;;;9.50;64.90;;;;;;5020308;28;20049;-72
2021/04/10 08:38:24;;;;;;;10.90;2.03;;;9.60;64.80;;;;;;4997183;28;20049;-72
2021/04/10 08:40:52;;;;;;;7.28;1.95;;;9.70;64.50;;;;;;5027076;28;20056;-74
2021/04/10 08:43:18;;;;;;;8.02;2.65;;;9.80;64.30;;;;;;5025965;28;20049;-73
2021/04/10 08:45:44;;;;;;;9.60;2.70;;;9.80;63.90;;;;;;5027184;28;20096;-72
2021/04/10 08:48:10;;;;;;;7.15;1.45;;;9.90;63.80;;;;;;5012191;28;20057;-71
2021/04/10 08:50:36;;;;;;;5.25;1.73;;;10.00;63.60;;;;;;5012907;28;20030;-72
2021/04/10 08:53:08;;;;;;;7.30;1.98;;;10.00;63.30;;;;;;5032106;28;20064;-73
2021/04/10 08:55:34;;;;;;;9.30;1.98;;;10.10;63.00;;;;;;4994214;28;20622;-72
2021/04/10 08:58:01;;;;;;;10.23;1.80;;;10.10;62.60;;;;;;5011468;28;20040;-72
2021/04/10 09:00:28;;;;;;;8.07;2.75;;;10.20;62.40;;;;;;5013202;28;20120;-73
2021/04/10 09:03:00;;;;;;;8.25;2.38;;;10.20;62.10;;;;;;5014020;28;20112;-72
2021/04/10 09:05:47;;;;;;;9.95;2.08;;;10.20;61.50;;;;;;5013292;28;20468;-73
2021/04/10 09:08:25;;;;;;;10.43;2.42;;;10.30;60.70;;;;;;5023667;28;20042;-72
2021/04/10 09:10:52;;;;;;;5.68;1.75;;;10.30;60.70;;;;;;5032095;28;20167;-73
2021/04/10 09:13:18;;;;;;;10.20;2.67;;;10.30;61.00;;;;;;5010670;28;20493;-75
2021/04/10 09:15:44;;;;;;;9.98;2.42;;;10.40;60.70;;;;;;5029057;28;20049;-75
2021/04/10 09:18:14;;;;;;;6.72;2.03;;;10.40;60.70;;;;;;5014046;28;20553;-72
2021/04/10 09:20:44;;;;;;;8.75;2.65;;;10.50;60.70;;;;;;5029938;28;20378;-76
2021/04/10 09:23:22;;;;;;;8.90;2.47;;;10.50;60.30;;;;;;5026761;28;20125;-74
2021/04/10 09:26:09;;;;;;;7.60;2.10;;;10.60;60.20;;;;;;5030761;28;20096;-72
2021/04/10 09:28:35;;;;;;;8.57;1.80;;;10.70;59.80;;;;;;5028792;28;20045;-71
2021/04/10 09:31:01;;;;;;;7.97;2.00;;;10.80;60.80;;;;;;5030436;28;20044;-73
2021/04/10 09:33:30;;;;;;;12.27;2.35;;;11.00;60.10;;;;;;5020489;28;20030;-73
2021/04/10 09:36:00;;;;;;;7.55;2.10;;;11.10;59.40;;;;;;5008661;28;20053;-74
2021/04/10 09:38:39;;;;;;;8.73;2.20;;;11.10;59.50;;;;;;5020918;28;20041;-73
2021/04/10 09:41:04;;;;;;;5.70;2.38;;;11.30;58.60;;;;;;5025407;28;20406;-74
2021/04/10 09:43:30;;;;;;;5.65;2.10;;;11.30;58.70;;;;;;5025347;28;20038;-73
2021/04/10 09:45:56;;;;;;;7.53;2.17;;;11.40;58.30;;;;;;5007310;28;20096;-72
2021/04/10 09:48:23;;;;;;;7.18;2.22;;;11.50;58.10;;;;;;5008303;28;20474;-72
2021/04/10 09:50:52;;;;;;;8.88;3.08;;;11.50;57.70;;;;;;5027519;28;20482;-72
2021/04/10 09:53:25;;;;;;;9.75;2.25;;;11.60;57.50;;;;;;5024223;28;20434;-72
2021/04/10 09:55:57;;;;;;;8.13;1.98;;;11.70;57.40;;;;;;5020629;28;20517;-73
2021/04/10 09:58:25;;;;;;;6.32;2.58;;;11.80;57.40;;;;;;5029740;28;20072;-73
2021/04/10 10:00:52;;;;;;;9.43;2.65;;;11.80;57.00;;;;;;5023665;28;20110;-73
2021/04/10 10:03:22;;;;;;;7.13;2.53;;;11.90;56.90;;;;;;5028961;28;20045;-73
2021/04/10 10:05:52;;;;;;;9.98;2.38;;;11.90;56.60;;;;;;5023357;28;20046;-72
2021/04/10 10:08:27;;;;;;;6.85;2.08;;;11.90;56.40;;;;;;5010022;28;20410;-73
2021/04/10 10:10:55;;;;;;;8.73;2.22;;;12.00;56.20;;;;;;5028152;28;20463;-71
2021/04/10 10:13:29;;;;;;;7.78;2.33;;;12.00;55.80;;;;;;5029117;28;20064;-73
2021/04/10 10:15:55;;;;;;;9.25;2.35;;;12.00;55.80;;;;;;5025408;28;20053;-71
2021/04/10 10:18:41;;;;;;;8.40;2.10;;;12.10;55.80;;;;;;5023363;28;20037;-70
2021/04/10 10:21:07;;;;;;;6.07;2.30;;;12.10;54.90;;;;;;5029133;28;20133;-72
2021/04/10 10:23:54;;;;;;;9.88;2.42;;;12.20;55.50;;;;;;5022649;28;20548;-72
2021/04/10 10:26:35;;;;;;;10.98;3.05;;;12.20;55.30;;;;;;5027427;28;20072;-74
2021/04/10 10:29:05;;;;;;;7.00;2.42;;;12.20;54.90;;;;;;5024082;28;20052;-72
2021/04/10 10:31:48;;;;;;;7.10;2.25;;;12.30;55.10;;;;;;5007824;28;20041;-71
2021/04/10 10:34:15;;;;;;;9.45;2.58;;;12.30;55.20;;;;;;5024569;28;20037;-72
2021/04/10 10:36:42;;;;;;;9.20;2.67;;;12.40;55.20;;;;;;5030055;28;20232;-72
2021/04/10 10:39:24;;;;;;;7.93;2.28;;;12.40;55.10;;;;;;5028095;28;20052;-72
2021/04/10 10:41:50;;;;;;;8.10;2.60;;;12.50;54.40;;;;;;5029047;28;20049;-74
2021/04/10 10:44:18;;;;;;;7.05;2.60;;;12.50;55.40;;;;;;5027395;28;20375;-71
2021/04/10 10:46:43;;;;;;;6.55;2.80;;;12.60;54.30;;;;;;5022728;28;20057;-71
2021/04/10 10:49:10;;;;;;;8.45;2.83;;;12.60;54.40;;;;;;5026466;28;20049;-73
2021/04/10 10:51:41;;;;;;;8.80;2.50;;;12.60;54.40;;;;;;5023790;28;20045;-73
2021/04/10 10:54:07;;;;;;;5.70;1.90;;;12.70;54.20;;;;;;5029634;28;20049;-72
2021/04/10 10:56:33;;;;;;;10.05;2.78;;;12.70;53.80;;;;;;5009182;28;20041;-73
2021/04/10 10:59:03;;;;;;;7.45;2.50;;;12.70;53.50;;;;;;5027843;28;20045;-73
2021/04/10 11:01:36;;;;;;;6.47;2.35;;;12.70;52.90;;;;;;5017475;28;20041;-74
2021/04/10 11:04:06;;;;;;;7.25;2.72;;;12.70;52.90;;;;;;5024291;28;20040;-73
2021/04/10 11:06:41;;;;;;;6.15;2.50;;;12.70;53.10;;;;;;5021995;28;20045;-72
2021/04/10 11:09:11;;;;;;;5.55;2.50;;;12.60;53.10;;;;;;5022232;28;20038;-73
2021/04/10 11:11:41;;;;;;;7.88;2.42;;;12.60;52.60;;;;;;5004590;28;20037;-72
2021/04/10 11:14:07;;;;;;;6.43;2.45;;;12.60;52.90;;;;;;5012555;28;20072;-74
2021/04/10 11:16:41;;;;;;;7.45;2.65;;;12.60;52.70;;;;;;5008158;28;20057;-74
2021/04/10 11:19:07;;;;;;;6.57;2.10;;;12.50;52.20;;;;;;5029706;28;20191;-74
2021/04/10 11:21:32;;;;;;;9.38;2.42;;;12.50;52.90;;;;;;5028301;28;20037;-71
2021/04/10 11:24:12;;;;;;;7.05;2.05;;;12.50;52.80;;;;;;5029753;28;20042;-72
2021/04/10 11:26:44;;;;;;;5.85;2.47;;;12.60;52.10;;;;;;5011639;28;20489;-73
2021/04/10 11:29:19;;;;;;;5.90;2.25;;;12.60;52.20;;;;;;5029949;28;20049;-73
2021/04/10 11:32:03;;;;;;;5.90;1.95;;;12.60;52.30;;;;;;5029714;28;20041;-73
2021/04/10 11:34:32;;;;;;;7.10;2.45;;;12.60;52.20;;;;;;5029815;28;20045;-73
2021/04/10 11:36:59;;;;;;;8.32;2.10;;;12.60;52.00;;;;;;5029854;28;20045;-73
2021/04/10 11:39:25;;;;;;;8.13;2.80;;;12.70;51.90;;;;;;5025103;28;20363;-72
2021/04/10 11:41:51;;;;;;;6.78;2.13;;;12.70;51.60;;;;;;5001370;28;20120;-74
2021/04/10 11:44:17;;;;;;;5.45;1.90;;;12.80;51.90;;;;;;5023086;28;20056;-69
2021/04/10 11:46:43;;;;;;;4.18;1.40;;;12.80;52.70;;;;;;5024999;28;20080;-72
2021/04/10 11:49:09;;;;;;;6.22;2.22;;;13.00;54.40;;;;;;5008750;28;20042;-72
2021/04/10 11:51:35;;;;;;;6.07;2.10;;;13.10;53.90;;;;;;5024926;28;20053;-72
2021/04/10 11:54:00;;;;;;;9.32;2.30;;;13.10;52.50;;;;;;5024874;28;20119;-71
2021/04/10 11:56:30;;;;;;;6.60;2.00;;;13.20;51.90;;;;;;5025653;28;20065;-72
2021/04/10 11:59:07;;;;;;;5.30;1.95;;;13.30;51.50;;;;;;5026146;28;20121;-72
2021/04/10 12:01:33;;;;;;;5.30;2.20;;;13.20;50.80;;;;;;4992730;28;20137;-73
2021/04/10 12:04:00;;;;;;;8.45;2.10;;;13.20;50.60;;;;;;5023749;28;20116;-74
2021/04/10 12:06:26;;;;;;;8.38;2.00;;;13.20;50.60;;;;;;5028340;28;20045;-73
2021/04/10 12:08:52;;;;;;;5.97;1.90;;;13.30;50.60;;;;;;5029072;28;20026;-73
2021/04/10 12:11:18;;;;;;;7.38;2.20;;;13.40;50.40;;;;;;5029572;28;20410;-74
2021/04/10 12:13:44;;;;;;;8.45;2.65;;;13.40;50.10;;;;;;5027671;28;20043;-72
2021/04/10 12:16:10;;;;;;;8.30;2.42;;;13.40;49.80;;;;;;5032159;28;20053;-73
2021/04/10 12:18:35;;;;;;;5.97;1.85;;;13.50;50.00;;;;;;5028777;28;20049;-77
2021/04/10 12:21:01;;;;;;;8.35;2.15;;;13.50;49.90;;;;;;5026343;28;20161;-74
2021/04/10 12:23:27;;;;;;;4.50;2.05;;;13.60;49.70;;;;;;5021119;28;20045;-73
2021/04/10 12:25:53;;;;;;;7.88;2.13;;;13.60;49.70;;;;;;5028450;28;20109;-72
2021/04/10 12:28:20;;;;;;;7.97;1.80;;;13.60;49.60;;;;;;5032366;28;20442;-71
2021/04/10 12:30:46;;;;;;;4.53;1.27;;;13.70;50.10;;;;;;5017599;28;20053;-71
2021/04/10 12:33:11;;;;;;;5.22;1.60;;;13.90;52.20;;;;;;5012442;28;20053;-74
2021/04/10 12:35:37;;;;;;;5.13;1.90;;;14.00;51.90;;;;;;5016137;28;20104;-79
2021/04/10 12:38:03;;;;;;;6.45;2.22;;;14.30;52.80;;;;;;5004703;28;20441;-73
2021/04/10 12:40:29;;;;;;;7.15;2.22;;;14.40;51.30;;;;;;5025234;28;20157;-74
2021/04/10 12:42:55;;;;;;;5.45;2.28;;;14.30;50.40;;;;;;5027045;28;20128;-75
2021/04/10 12:45:21;;;;;;;7.10;2.45;;;14.30;50.00;;;;;;5028747;28;20100;-72
2021/04/10 12:47:47;;;;;;;5.30;2.17;;;14.10;49.30;;;;;;5019687;28;20478;-71
2021/04/10 12:50:15;;;;;;;6.53;2.47;;;13.80;49.30;;;;;;5006506;28;20513;-70
2021/04/10 12:52:41;;;;;;;6.55;2.08;;;13.50;49.70;;;;;;5016662;28;20045;-72
2021/04/10 12:55:07;;;;;;;6.60;2.85;;;13.30;50.10;;;;;;5026218;28;20132;-72
2021/04/10 12:57:33;;;;;;;6.47;3.03;;;13.00;50.20;;;;;;5023205;28;20041;-72